createdAt,value
2023-09-14T00:00:36.164Z,6.88
2023-09-14T00:03:04.276Z,7.10
2023-09-14T00:05:31.836Z,6.38
2023-09-14T00:07:59.353Z,6.68
2023-09-14T00:10:26.728Z,6.43
2023-09-14T00:12:54.164Z,6.55
2023-09-14T00:15:21.583Z,7.55
2023-09-14T00:17:49.015Z,7.05
2023-09-14T00:20:23.103Z,6.88
2023-09-14T00:22:51.045Z,7.28
2023-09-14T00:25:19.169Z,6.80
2023-09-14T00:27:46.670Z,7.13
2023-09-14T00:30:14.846Z,6.65
2023-09-14T00:32:43.541Z,7.68
2023-09-14T00:35:14.534Z,7.35
2023-09-14T00:37:42.411Z,7.28
2023-09-14T00:40:10.872Z,6.90
2023-09-14T00:42:45.223Z,7.53
2023-09-14T00:47:47.297Z,7.10
2023-09-14T00:50:16.473Z,7.32
2023-09-14T00:52:48.341Z,7.57
2023-09-14T00:55:18.766Z,7.28
2023-09-14T00:57:50.225Z,7.18
2023-09-14T01:00:17.921Z,7.22
2023-09-14T01:02:45.565Z,6.95
2023-09-14T01:05:16.275Z,7.28
2023-09-14T01:07:43.764Z,7.43
2023-09-14T01:10:11.533Z,8.05
2023-09-14T01:12:39.725Z,7.05
2023-09-14T01:15:20.872Z,7.53
2023-09-14T01:18:14.650Z,7.47
2023-09-14T01:20:53.916Z,7.28
2023-09-14T01:23:49.250Z,7.55
2023-09-14T01:26:16.924Z,8.13
2023-09-14T01:28:44.574Z,7.88
2023-09-14T01:31:12.322Z,8.30
2023-09-14T01:33:39.953Z,8.80
2023-09-14T01:36:11.824Z,8.45
2023-09-14T01:38:39.396Z,9.30
2023-09-14T01:41:06.740Z,9.30
2023-09-14T01:43:34.146Z,9.65
2023-09-14T01:46:02.554Z,9.20
2023-09-14T01:48:30.268Z,11.18
2023-09-14T01:50:57.667Z,10.32
2023-09-14T01:53:25.096Z,11.23
2023-09-14T01:55:52.543Z,11.20
2023-09-14T01:58:19.967Z,11.43
2023-09-14T02:00:47.417Z,11.00
2023-09-14T02:03:14.815Z,11.05
2023-09-14T02:05:42.219Z,12.00
2023-09-14T02:08:09.645Z,10.95
2023-09-14T02:10:36.981Z,11.45
2023-09-14T02:13:04.398Z,11.70
2023-09-14T02:15:31.891Z,11.63
2023-09-14T02:17:59.341Z,11.70
2023-09-14T02:20:27.089Z,12.52
2023-09-14T02:22:54.530Z,11.40
2023-09-14T02:25:21.918Z,11.32
2023-09-14T02:27:49.320Z,11.63
2023-09-14T02:30:16.769Z,11.98
2023-09-14T02:32:44.130Z,12.18
2023-09-14T02:35:11.650Z,11.50
2023-09-14T02:37:39.074Z,11.55
2023-09-14T02:40:09.737Z,11.95
2023-09-14T02:42:38.860Z,12.40
2023-09-14T02:45:06.850Z,12.73
2023-09-14T02:47:34.190Z,12.98
2023-09-14T02:50:01.581Z,13.38
2023-09-14T02:52:28.929Z,13.68
2023-09-14T02:54:56.460Z,12.73
2023-09-14T02:57:24.029Z,13.50
2023-09-14T02:59:54.854Z,13.63
2023-09-14T03:02:26.090Z,14.05
2023-09-14T03:04:53.576Z,13.13
2023-09-14T03:07:23.354Z,12.93
2023-09-14T03:09:53.958Z,14.82
2023-09-14T03:12:21.488Z,13.70
2023-09-14T03:14:48.884Z,13.20
2023-09-14T03:17:16.252Z,14.93
2023-09-14T03:19:43.986Z,14.02
2023-09-14T03:22:12.706Z,13.70
2023-09-14T03:24:40.222Z,13.18
2023-09-14T03:27:07.987Z,13.60
2023-09-14T03:29:35.381Z,14.25
2023-09-14T03:32:02.874Z,13.75
2023-09-14T03:34:30.297Z,15.82
2023-09-14T03:36:57.708Z,14.90
2023-09-14T03:39:25.407Z,15.52
2023-09-14T03:41:52.861Z,15.43
2023-09-14T03:44:20.237Z,14.95
2023-09-14T03:46:47.661Z,15.70
2023-09-14T03:49:15.178Z,17.08
2023-09-14T03:51:42.641Z,16.38
2023-09-14T03:54:10.182Z,15.48
2023-09-14T03:56:38.050Z,14.07
2023-09-14T03:59:05.469Z,15.88
2023-09-14T04:01:32.929Z,16.05
2023-09-14T04:04:00.789Z,15.75
2023-09-14T04:06:28.228Z,15.68
2023-09-14T04:08:55.612Z,16.17
2023-09-14T04:11:22.989Z,17.10
2023-09-14T04:13:50.392Z,16.20
2023-09-14T04:16:17.877Z,17.33
2023-09-14T04:18:48.006Z,16.63
2023-09-14T04:21:16.032Z,16.92
2023-09-14T04:23:46.309Z,15.73
2023-09-14T04:26:15.216Z,17.73
2023-09-14T04:28:42.690Z,17.10
2023-09-14T04:31:11.628Z,17.20
2023-09-14T04:33:42.624Z,17.65
2023-09-14T04:36:10.537Z,16.15
2023-09-14T04:38:42.985Z,17.45
2023-09-14T04:41:10.875Z,16.95
2023-09-14T04:43:38.357Z,16.33
2023-09-14T04:46:06.551Z,15.80
2023-09-14T04:48:34.473Z,16.58
2023-09-14T04:51:02.749Z,16.98
2023-09-14T04:53:30.149Z,17.35
2023-09-14T04:55:58.954Z,17.17
2023-09-14T04:58:27.169Z,17.42
2023-09-14T05:00:55.687Z,16.75
2023-09-14T05:03:23.891Z,17.23
2023-09-14T05:05:53.232Z,18.30
2023-09-14T05:08:21.371Z,18.70
2023-09-14T05:10:51.135Z,17.98
2023-09-14T05:13:19.754Z,19.13
2023-09-14T05:15:47.701Z,18.45
2023-09-14T05:18:15.914Z,18.20
2023-09-14T05:20:48.356Z,18.13
2023-09-14T05:23:15.828Z,18.30
2023-09-14T05:25:43.453Z,18.85
2023-09-14T05:28:11.140Z,18.65
2023-09-14T05:30:40.144Z,18.17
2023-09-14T05:33:10.848Z,19.27
2023-09-14T05:35:38.899Z,17.77
2023-09-14T05:38:06.677Z,17.05
2023-09-14T05:40:34.335Z,16.98
2023-09-14T05:43:02.295Z,18.88
2023-09-14T05:45:30.173Z,18.35
2023-09-14T05:47:58.751Z,19.08
2023-09-14T05:50:26.179Z,18.90
2023-09-14T05:52:56.330Z,17.75
2023-09-14T05:55:24.092Z,18.80
2023-09-14T05:57:51.681Z,20.23
2023-09-14T06:00:20.146Z,18.60
2023-09-14T06:02:52.611Z,17.35
2023-09-14T06:05:24.639Z,18.98
2023-09-14T06:07:54.748Z,11.02
2023-09-14T06:10:22.718Z,9.13
2023-09-14T06:12:51.575Z,9.70
2023-09-14T06:15:19.035Z,18.75
2023-09-14T06:17:48.132Z,21.80
2023-09-14T06:20:15.889Z,22.35
2023-09-14T06:22:43.661Z,14.98
2023-09-14T06:25:11.089Z,14.20
2023-09-14T06:27:38.602Z,17.08
2023-09-14T06:30:07.288Z,14.45
2023-09-14T06:32:34.731Z,15.15
2023-09-14T06:35:02.592Z,25.05
2023-09-14T06:37:30.099Z,22.77
2023-09-14T06:39:57.814Z,23.65
2023-09-14T06:42:25.323Z,18.42
2023-09-14T06:44:52.696Z,24.55
2023-09-14T06:47:20.094Z,20.95
2023-09-14T06:49:47.439Z,23.48
2023-09-14T06:52:14.896Z,23.02
2023-09-14T06:54:42.356Z,25.73
2023-09-14T06:57:09.804Z,25.83
2023-09-14T06:59:37.160Z,28.70
2023-09-14T07:02:04.849Z,28.23
2023-09-14T07:04:32.282Z,31.35
2023-09-14T07:06:59.778Z,25.20
2023-09-14T07:09:27.306Z,22.73
2023-09-14T07:11:54.739Z,21.92
2023-09-14T07:14:22.331Z,19.95
2023-09-14T07:16:49.850Z,22.08
2023-09-14T07:19:17.364Z,23.83
2023-09-14T07:21:44.806Z,23.80
2023-09-14T07:24:12.296Z,25.15
2023-09-14T07:26:40.749Z,25.52
2023-09-14T07:29:09.148Z,27.60
2023-09-14T07:31:37.318Z,24.50
2023-09-14T07:34:05.007Z,25.63
2023-09-14T07:36:33.064Z,27.35
2023-09-14T07:39:00.500Z,27.92
2023-09-14T07:41:27.973Z,27.95
2023-09-14T07:43:55.871Z,26.70
2023-09-14T07:46:23.408Z,27.80
2023-09-14T07:48:50.997Z,27.95
2023-09-14T07:51:18.368Z,28.77
2023-09-14T07:53:46.113Z,28.17
2023-09-14T07:56:14.497Z,28.35
2023-09-14T07:58:43.185Z,28.60
2023-09-14T08:01:10.720Z,26.63
2023-09-14T08:03:38.660Z,28.02
2023-09-14T08:06:06.241Z,27.98
2023-09-14T08:08:36.199Z,27.70
2023-09-14T08:11:03.657Z,30.25
2023-09-14T08:13:31.037Z,29.70
2023-09-14T08:15:58.692Z,29.98
2023-09-14T08:18:26.161Z,27.92
2023-09-14T08:20:53.790Z,28.98
2023-09-14T08:23:21.583Z,28.75
2023-09-14T08:25:49.145Z,28.20
2023-09-14T08:28:20.579Z,28.80
2023-09-14T08:30:48.827Z,28.38
2023-09-14T08:33:20.181Z,30.00
2023-09-14T08:35:48.314Z,30.20
2023-09-14T08:38:16.283Z,29.67
2023-09-14T08:40:47.059Z,30.02
2023-09-14T08:43:15.657Z,29.02
2023-09-14T08:45:43.425Z,28.17
2023-09-14T08:48:10.906Z,32.90
2023-09-14T08:50:40.243Z,29.50
2023-09-14T08:53:08.022Z,28.85
2023-09-14T08:55:36.916Z,27.13
2023-09-14T08:58:04.735Z,29.77
2023-09-14T09:00:32.550Z,28.88
2023-09-14T09:03:00.763Z,28.60
2023-09-14T09:05:28.992Z,29.50
2023-09-14T09:07:56.988Z,29.02
2023-09-14T09:10:28.961Z,30.20
2023-09-14T09:13:03.234Z,30.38
2023-09-14T09:15:37.799Z,29.05
2023-09-14T09:18:10.049Z,29.70
2023-09-14T09:20:39.062Z,28.98
2023-09-14T09:23:06.718Z,29.20
2023-09-14T09:25:50.997Z,28.48
2023-09-14T09:28:18.460Z,27.75
2023-09-14T09:30:46.223Z,28.30
2023-09-14T09:33:14.069Z,26.98
2023-09-14T09:35:42.736Z,27.35
2023-09-14T09:38:17.301Z,28.17
2023-09-14T09:40:46.238Z,27.08
2023-09-14T09:43:17.663Z,27.65
2023-09-14T09:45:45.843Z,27.83
2023-09-14T09:48:13.569Z,27.27
2023-09-14T09:50:41.051Z,27.77
2023-09-14T09:53:13.268Z,25.80
2023-09-14T09:55:43.116Z,27.05
2023-09-14T09:58:10.540Z,27.13
2023-09-14T10:00:40.270Z,27.65
2023-09-14T10:03:07.922Z,27.17
2023-09-14T10:05:39.544Z,27.30
2023-09-14T10:08:20.928Z,26.98
2023-09-14T10:10:52.506Z,26.85
2023-09-14T10:13:24.697Z,25.67
2023-09-14T10:15:54.464Z,27.05
2023-09-14T10:18:22.550Z,24.80
2023-09-14T10:20:53.817Z,24.15
2023-09-14T10:23:22.659Z,23.90
2023-09-14T10:25:51.646Z,25.40
2023-09-14T10:28:21.082Z,24.77
2023-09-14T10:30:48.800Z,24.05
2023-09-14T10:33:16.278Z,24.95
2023-09-14T10:35:44.391Z,24.63
2023-09-14T10:38:12.617Z,24.95
2023-09-14T10:40:40.523Z,23.38
2023-09-14T10:43:09.139Z,23.92
2023-09-14T10:45:41.293Z,22.92
2023-09-14T10:48:11.931Z,21.10
2023-09-14T10:50:39.349Z,22.42
2023-09-14T10:53:06.708Z,22.48
2023-09-14T10:55:36.435Z,31.10
2023-09-14T10:58:04.134Z,24.05
2023-09-14T11:03:22.388Z,25.05
2023-09-14T11:05:52.753Z,26.77
2023-09-14T11:08:21.181Z,22.00
2023-09-14T11:11:01.141Z,26.23
2023-09-14T11:13:36.581Z,21.45
2023-09-14T11:16:15.357Z,20.45
2023-09-14T11:18:48.654Z,19.38
2023-09-14T11:21:34.273Z,20.27
2023-09-14T11:24:05.534Z,20.48
2023-09-14T11:26:41.437Z,18.15
2023-09-14T11:29:09.722Z,17.80
2023-09-14T11:34:14.728Z,16.00
2023-09-14T11:36:44.691Z,14.05
2023-09-14T11:39:18.975Z,13.90
2023-09-14T11:41:52.879Z,15.68
2023-09-14T11:46:57.553Z,14.10
2023-09-14T11:49:30.496Z,13.93
2023-09-14T11:51:58.009Z,12.77
2023-09-14T11:54:32.206Z,11.95
2023-09-14T11:57:06.320Z,10.60
2023-09-14T11:59:34.115Z,10.35
2023-09-14T12:02:02.399Z,10.13
2023-09-14T12:04:31.016Z,10.73
2023-09-14T12:06:59.904Z,10.65
2023-09-14T12:09:40.183Z,10.90
2023-09-14T12:12:10.893Z,10.85
2023-09-14T12:14:42.442Z,10.43
2023-09-14T12:17:27.197Z,11.43
2023-09-14T12:19:59.790Z,12.68
2023-09-14T12:22:29.401Z,12.02
2023-09-14T12:24:56.898Z,10.40
2023-09-14T12:27:24.333Z,10.73
2023-09-14T12:29:51.740Z,10.63
2023-09-14T12:32:19.427Z,9.70
2023-09-14T12:34:46.874Z,10.00
2023-09-14T12:37:17.920Z,10.18
2023-09-14T12:39:52.532Z,11.77
2023-09-14T12:42:23.982Z,12.35
2023-09-14T12:44:53.825Z,12.35
2023-09-14T12:47:21.183Z,12.00
2023-09-14T12:49:48.591Z,15.35
2023-09-14T12:52:15.991Z,13.48
2023-09-14T12:54:44.156Z,12.57
2023-09-14T12:57:14.714Z,12.63
2023-09-14T13:00:21.741Z,10.68
2023-09-14T13:02:49.998Z,12.13
2023-09-14T13:05:21.737Z,13.73
2023-09-14T13:07:53.098Z,13.82
2023-09-14T13:10:24.757Z,13.45
2023-09-14T13:13:07.842Z,12.02
2023-09-14T13:15:35.525Z,12.95
2023-09-14T13:18:04.811Z,13.73
2023-09-14T13:20:33.436Z,13.77
2023-09-14T13:23:05.174Z,16.20
2023-09-14T13:25:32.992Z,14.93
2023-09-14T13:28:01.147Z,15.10
2023-09-14T13:30:28.650Z,15.32
2023-09-14T13:32:57.453Z,15.90
2023-09-14T13:35:25.372Z,13.75
2023-09-14T13:37:58.770Z,14.52
2023-09-14T13:40:27.421Z,14.18
2023-09-14T13:42:58.333Z,13.75
2023-09-14T13:45:30.489Z,14.32
2023-09-14T13:47:58.364Z,13.90
2023-09-14T13:50:26.107Z,14.40
2023-09-14T13:52:53.600Z,14.88
2023-09-14T13:55:21.326Z,14.52
2023-09-14T13:57:49.032Z,14.27
2023-09-14T14:00:18.659Z,13.02
2023-09-14T14:02:55.773Z,13.65
2023-09-14T14:05:23.311Z,13.82
2023-09-14T14:07:50.711Z,11.77
2023-09-14T14:10:18.101Z,12.05
2023-09-14T14:12:45.529Z,10.98
2023-09-14T14:15:13.487Z,9.70
2023-09-14T14:17:41.488Z,9.98
2023-09-14T14:20:10.234Z,11.98
2023-09-14T14:22:37.863Z,10.38
2023-09-14T14:25:05.751Z,10.80
2023-09-14T14:27:33.860Z,10.13
2023-09-14T14:30:01.479Z,10.90
2023-09-14T14:32:29.494Z,12.05
2023-09-14T14:34:57.171Z,11.73
2023-09-14T14:37:24.678Z,11.63
2023-09-14T14:39:54.905Z,12.88
2023-09-14T14:42:22.639Z,12.60
2023-09-14T14:44:50.374Z,11.90
2023-09-14T14:47:19.788Z,11.68
2023-09-14T14:49:48.000Z,11.05
2023-09-14T14:52:15.555Z,10.75
2023-09-14T14:54:43.151Z,11.05
2023-09-14T14:57:11.498Z,11.13
2023-09-14T14:59:39.440Z,10.40
2023-09-14T15:02:07.280Z,12.02
2023-09-14T15:04:35.661Z,12.40
2023-09-14T15:07:03.691Z,11.70
2023-09-14T15:09:31.636Z,11.00
2023-09-14T15:11:59.080Z,11.30
2023-09-14T15:14:26.465Z,12.82
2023-09-14T15:16:53.871Z,9.80
2023-09-14T15:19:21.993Z,10.50
2023-09-14T15:21:49.540Z,11.15
2023-09-14T15:24:17.074Z,11.52
2023-09-14T15:26:45.861Z,10.90
2023-09-14T15:29:13.430Z,11.45
2023-09-14T15:31:42.563Z,11.05
2023-09-14T15:34:10.273Z,12.20
2023-09-14T15:36:37.797Z,12.45
2023-09-14T15:39:05.193Z,11.70
2023-09-14T15:41:32.629Z,10.57
2023-09-14T15:44:00.055Z,11.93
2023-09-14T15:46:27.539Z,11.70
2023-09-14T15:48:57.709Z,11.10
2023-09-14T15:51:25.579Z,12.27
2023-09-14T15:53:53.155Z,11.15
2023-09-14T15:56:21.181Z,11.32
2023-09-14T15:58:54.730Z,11.55
2023-09-14T16:01:22.232Z,11.15
2023-09-14T16:03:49.984Z,11.65
2023-09-14T16:06:17.664Z,12.68
2023-09-14T16:08:45.455Z,12.65
2023-09-14T16:11:14.349Z,12.48
2023-09-14T16:13:41.715Z,11.95
2023-09-14T16:16:10.675Z,12.10
2023-09-14T16:18:38.189Z,11.90
2023-09-14T16:21:06.628Z,11.52
2023-09-14T16:23:34.818Z,12.88
2023-09-14T16:26:02.523Z,12.57
2023-09-14T16:28:29.955Z,12.77
2023-09-14T16:30:59.140Z,13.77
2023-09-14T16:33:26.691Z,13.48
2023-09-14T16:35:58.245Z,13.27
2023-09-14T16:38:25.870Z,14.82
2023-09-14T16:40:53.309Z,13.48
2023-09-14T16:43:20.768Z,13.20
2023-09-14T16:45:48.809Z,13.73
2023-09-14T16:48:16.355Z,14.50
2023-09-14T16:50:43.908Z,13.73
2023-09-14T16:53:11.328Z,12.82
2023-09-14T16:55:39.107Z,12.70
2023-09-14T16:58:06.589Z,14.10
2023-09-14T17:00:34.049Z,13.38
2023-09-14T17:03:01.544Z,12.77
2023-09-14T17:05:29.022Z,13.82
2023-09-14T17:07:56.422Z,13.00
2023-09-14T17:10:23.882Z,12.05
2023-09-14T17:12:51.277Z,12.98
2023-09-14T17:15:18.858Z,12.70
2023-09-14T17:17:46.322Z,13.25
2023-09-14T17:20:13.841Z,13.68
2023-09-14T17:22:41.185Z,13.55
2023-09-14T17:25:08.950Z,12.30
2023-09-14T17:27:36.734Z,12.68
2023-09-14T17:30:06.317Z,12.73
2023-09-14T17:32:33.753Z,12.80
2023-09-14T17:35:01.504Z,13.95
2023-09-14T17:37:28.867Z,12.52
2023-09-14T17:39:56.293Z,11.80
2023-09-14T17:42:23.705Z,12.43
2023-09-14T17:44:51.073Z,12.88
2023-09-14T17:47:18.524Z,13.48
2023-09-14T17:49:45.945Z,12.73
2023-09-14T17:52:13.434Z,12.45
2023-09-14T17:54:40.918Z,12.65
2023-09-14T17:57:08.288Z,12.73
2023-09-14T17:59:35.679Z,14.30
2023-09-14T18:02:04.883Z,12.43
2023-09-14T18:04:35.238Z,12.77
2023-09-14T18:07:03.360Z,12.70
2023-09-14T18:09:30.852Z,13.15
2023-09-14T18:11:59.375Z,14.80
2023-09-14T18:14:29.231Z,13.50
2023-09-14T18:17:00.695Z,13.18
2023-09-14T18:19:28.282Z,12.65
2023-09-14T18:21:56.216Z,12.98
2023-09-14T18:24:23.782Z,13.98
2023-09-14T18:26:51.134Z,12.80
2023-09-14T18:29:18.461Z,13.07
2023-09-14T18:31:46.609Z,13.20
2023-09-14T18:34:14.609Z,12.43
2023-09-14T18:36:42.294Z,14.27
2023-09-14T18:39:09.725Z,12.57
2023-09-14T18:41:37.144Z,13.32
2023-09-14T18:44:04.808Z,14.10
2023-09-14T18:46:32.396Z,14.00
2023-09-14T18:49:01.401Z,13.48
2023-09-14T18:51:28.893Z,12.85
2023-09-14T18:53:56.290Z,13.40
2023-09-14T18:56:23.616Z,13.52
2023-09-14T18:59:29.996Z,13.98
2023-09-14T19:01:39.032Z,15.10
2023-09-14T19:04:07.216Z,13.55
2023-09-14T19:06:34.691Z,13.70
2023-09-14T19:09:02.090Z,13.55
2023-09-14T19:11:29.417Z,15.60
2023-09-14T19:13:56.784Z,14.07
2023-09-14T19:16:24.264Z,14.13
2023-09-14T19:18:51.800Z,15.02
2023-09-14T19:21:19.137Z,15.02
2023-09-14T19:23:46.739Z,14.30
2023-09-14T19:26:14.094Z,13.95
2023-09-14T19:28:41.552Z,15.27
2023-09-14T19:31:15.433Z,14.68
2023-09-14T19:33:42.904Z,14.38
2023-09-14T19:36:10.292Z,13.35
2023-09-14T19:38:37.707Z,14.13
2023-09-14T19:41:05.423Z,15.02
2023-09-14T19:43:32.835Z,14.10
2023-09-14T19:46:00.346Z,13.73
2023-09-14T19:48:28.753Z,15.23
2023-09-14T19:50:56.369Z,14.65
2023-09-14T19:53:34.218Z,13.95
2023-09-14T19:56:07.866Z,14.43
2023-09-14T19:58:35.941Z,18.80
2023-09-14T20:01:05.415Z,15.38
2023-09-14T20:03:34.498Z,14.98
2023-09-14T20:06:02.075Z,14.40
2023-09-14T20:08:30.092Z,14.32
2023-09-14T20:10:58.019Z,13.65
2023-09-14T20:13:25.456Z,14.48
2023-09-14T20:15:53.202Z,14.27
2023-09-14T20:18:20.670Z,14.02
2023-09-14T20:20:48.025Z,13.98
2023-09-14T20:23:15.618Z,14.32
2023-09-14T20:25:43.026Z,14.70
2023-09-14T20:28:15.116Z,14.38
2023-09-14T20:30:44.423Z,13.38
2023-09-14T20:33:11.882Z,13.27
2023-09-14T20:35:39.288Z,12.60
2023-09-14T20:38:06.652Z,12.95
2023-09-14T20:40:34.020Z,11.55
2023-09-14T20:43:01.647Z,12.95
2023-09-14T20:45:29.567Z,12.25
2023-09-14T20:47:58.839Z,12.13
2023-09-14T20:50:27.168Z,11.25
2023-09-14T20:52:55.036Z,11.23
2023-09-14T20:55:24.311Z,11.55
2023-09-14T20:57:54.523Z,11.27
2023-09-14T21:00:22.170Z,11.45
2023-09-14T21:02:49.726Z,11.45
2023-09-14T21:05:17.982Z,10.00
2023-09-14T21:07:45.355Z,10.95
2023-09-14T21:10:12.808Z,11.77
2023-09-14T21:12:40.247Z,10.80
2023-09-14T21:15:07.932Z,11.45
2023-09-14T21:17:35.295Z,10.25
2023-09-14T21:20:02.834Z,10.40
2023-09-14T21:22:30.242Z,10.50
2023-09-14T21:24:59.478Z,9.50
2023-09-14T21:27:27.129Z,10.98
2023-09-14T21:29:54.490Z,10.48
2023-09-14T21:32:21.982Z,9.70
2023-09-14T21:34:49.587Z,10.45
2023-09-14T21:37:18.469Z,9.88
2023-09-14T21:39:46.112Z,10.00
2023-09-14T21:42:13.791Z,10.45
2023-09-14T21:44:41.209Z,10.32
2023-09-14T21:47:08.735Z,10.18
2023-09-14T21:49:40.765Z,9.88
2023-09-14T21:52:09.512Z,10.23
2023-09-14T21:54:37.593Z,10.63
2023-09-14T21:57:07.166Z,10.98
2023-09-14T21:59:35.282Z,9.68
2023-09-14T22:02:03.231Z,10.40
2023-09-14T22:04:30.962Z,10.18
2023-09-14T22:06:58.564Z,9.38
2023-09-14T22:09:27.590Z,9.63
2023-09-14T22:11:56.945Z,9.82
2023-09-14T22:14:24.322Z,9.45
2023-09-14T22:16:52.960Z,8.90
2023-09-14T22:19:21.986Z,9.77
2023-09-14T22:21:50.127Z,9.38
2023-09-14T22:24:17.588Z,9.00
2023-09-14T22:26:44.920Z,9.25
2023-09-14T22:29:13.675Z,9.50
2023-09-14T22:31:41.084Z,8.93
2023-09-14T22:34:08.512Z,9.48
2023-09-14T22:36:36.349Z,8.43
2023-09-14T22:39:09.415Z,9.27
2023-09-14T22:41:38.819Z,9.13
2023-09-14T22:44:07.066Z,9.32
2023-09-14T22:46:34.983Z,8.82
2023-09-14T22:49:02.712Z,8.82
2023-09-14T22:51:30.721Z,8.98
2023-09-14T22:54:01.026Z,9.05
2023-09-14T22:56:29.045Z,8.80
2023-09-14T22:58:56.396Z,8.75
2023-09-14T23:01:26.422Z,8.30
2023-09-14T23:03:54.573Z,9.02
2023-09-14T23:06:22.135Z,8.23
2023-09-14T23:08:49.883Z,8.45
2023-09-14T23:11:33.225Z,8.68
2023-09-14T23:14:00.652Z,7.90
2023-09-14T23:16:41.775Z,8.18
2023-09-14T23:19:10.251Z,7.40
2023-09-14T23:21:38.851Z,8.95
2023-09-14T23:24:12.819Z,8.88
2023-09-14T23:26:42.906Z,8.88
2023-09-14T23:29:12.161Z,9.05
2023-09-14T23:31:50.273Z,9.25
2023-09-14T23:34:18.462Z,8.45
2023-09-14T23:36:45.961Z,8.50
2023-09-14T23:39:13.785Z,8.80
2023-09-14T23:41:41.851Z,8.35
2023-09-14T23:44:19.463Z,8.82
2023-09-14T23:46:47.196Z,8.75
2023-09-14T23:49:15.262Z,8.40
2023-09-14T23:51:44.297Z,8.27
2023-09-14T23:54:12.385Z,8.85
2023-09-14T23:56:39.959Z,8.13
2023-09-14T23:59:09.498Z,7.90
